Weather History for KMFI - January, 2014

Change the Weather History Date:

Thursday, January 16, 2014

  Actual Average Record
Temperature  
Mean Temperature 19 °F -  
Max Temperature 30 °F 22 °F 45 °F (1973)
Min Temperature 8 °F 2 °F -31 °F (1972)
Degree Days  
Heating Degree Days 46    
Moisture  
Dew Point 14 °F    
Average Humidity 79    
Maximum Humidity 92    
Minimum Humidity 68    
Precipitation  
Precipitation 0.06 in - - ()
Sea Level Pressure  
Sea Level Pressure 29.47 in    
Wind  
Wind Speed 14 mph (West)    
Max Wind Speed 24 mph    
Max Gust Speed 32 mph    
Visibility 5 miles    
Events Fog , Snow    
Averages and records for this station are not official NWS values.
T = Trace of Precipitation, MM = Missing Value Source: NWS Daily Summary

Daily Weather History Graph

Daily Weather History Graph

Search for Another Location

Airport or City:

Trip Planner

Search our weather history database for the weather conditions in past years. The results will help you decide how hot, cold, wet, or windy it might be!

Date:

Astronomy

Jan. 16, 2014 Rise Set
Actual Time 7:33 AM CST 4:47 PM CST
Civil Twilight 7:01 AM CST 5:20 PM CST
Nautical Twilight 6:25 AM CST 5:56 PM CST
Astronomical Twilight 5:50 AM CST 6:31 PM CST
Moon 5:43 PM CST (1/16) 7:23 AM CST (1/16)
Length of Visible Light 10h 19m
Length of Day
9h 14m
Full, 100% of the Moon is Illuminated
Jan 16
Full
Jan 23
Last Quarter
Jan 30
New
Feb 6
First Quarter
Feb 14
Full

Hourly Weather History & Observations

Time (CST) Temp. Windchill Dew Point Humidity Pressure Visibility Wind Dir Wind Speed Gust Speed Precip Events Conditions
12:54 AM 16.0 °F 0.6 °F 10.9 °F 81% 29.52 in 8.0 mi SSW 16.1 mph - 0.00 in Snow Light Snow
1:01 AM 17.1 °F 2.5 °F 12.0 °F 81% 29.43 in 7.0 mi SSW 15.0 mph - 0.00 in Snow Light Snow
1:19 AM 17.1 °F 2.0 °F 12.0 °F 81% 29.43 in 9.0 mi SSW 16.1 mph - 0.00 in   Overcast
1:54 AM 19.0 °F 4.5 °F 12.9 °F 77% 29.49 in 10.0 mi SSW 16.1 mph 24.2 mph 0.00 in   Overcast
2:24 AM 19.0 °F 6.1 °F 12.9 °F 77% 29.40 in 10.0 mi SSW 12.7 mph - N/A   Overcast
2:38 AM 19.0 °F 5.6 °F 12.9 °F 77% 29.39 in 10.0 mi South 13.8 mph - N/A   Overcast
2:54 AM 18.0 °F 5.4 °F 12.9 °F 81% 29.47 in 10.0 mi SSW 11.5 mph - N/A   Mostly Cloudy
3:54 AM 19.0 °F 6.8 °F 14.0 °F 81% 29.44 in 10.0 mi SSW 11.5 mph - N/A   Overcast
4:54 AM 19.9 °F 6.2 °F 14.0 °F 78% 29.42 in 10.0 mi SSW 15.0 mph - N/A   Overcast
5:54 AM 21.0 °F 9.9 °F 16.0 °F 81% 29.42 in 10.0 mi SSW 10.4 mph - 0.00 in   Overcast
6:22 AM 21.9 °F 12.5 °F 16.0 °F 78% 29.34 in 10.0 mi SSW 8.1 mph - N/A   Overcast
6:30 AM 21.9 °F 11.0 °F 16.0 °F 78% 29.34 in 10.0 mi SSW 10.4 mph - N/A   Overcast
6:46 AM 21.9 °F 11.7 °F 17.1 °F 82% 29.34 in 10.0 mi SSW 9.2 mph - N/A   Overcast
6:54 AM 21.9 °F 12.5 °F 17.1 °F 82% 29.41 in 10.0 mi SSW 8.1 mph - N/A   Overcast
7:54 AM 23.0 °F 13.9 °F 18.0 °F 81% 29.41 in 10.0 mi SSW 8.1 mph - N/A   Overcast
8:54 AM 24.1 °F 15.2 °F 19.9 °F 84% 29.41 in 10.0 mi SSW 8.1 mph - N/A   Overcast
9:54 AM 26.1 °F 18.4 °F 21.0 °F 81% 29.42 in 9.0 mi SSW 6.9 mph - 0.00 in   Overcast
10:42 AM 27.0 °F 19.5 °F 23.0 °F 85% 29.35 in 1.8 mi SSW 6.9 mph - 0.00 in Snow Light Snow
10:45 AM 27.0 °F 18.7 °F 23.0 °F 85% 29.35 in 0.8 mi SW 8.1 mph - 0.00 in Snow Light Snow
10:54 AM 26.1 °F 18.4 °F 23.0 °F 88% 29.41 in 0.2 mi SSW 6.9 mph - 0.01 in Fog , Snow Heavy Snow
11:28 AM 27.0 °F 19.5 °F 25.0 °F 92% 29.34 in 1.2 mi SSW 6.9 mph - 0.04 in Snow Light Snow
11:38 AM 27.0 °F 19.5 °F 25.0 °F 92% 29.34 in 2.0 mi SSW 6.9 mph - 0.04 in Snow Light Snow
11:43 AM 27.0 °F 20.5 °F 25.0 °F 92% 29.33 in 1.0 mi SSW 5.8 mph - 0.04 in Snow Light Snow
11:50 AM 28.4 °F 21.2 °F 24.8 °F 86% 29.33 in 0.2 mi SW 6.9 mph - 0.05 in Fog , Snow Heavy Snow
11:54 AM 28.0 °F 21.7 °F 25.0 °F 88% 29.39 in 0.2 mi SW 5.8 mph - 0.05 in Fog , Snow Snow
12:06 PM 28.0 °F 21.7 °F 25.0 °F 88% 29.33 in 1.5 mi WSW 5.8 mph - 0.00 in Snow Light Snow
12:09 PM 28.0 °F 20.8 °F 25.0 °F 88% 29.33 in 3.0 mi WSW 6.9 mph - 0.00 in Snow Light Snow
12:31 PM 28.9 °F 20.4 °F 26.1 °F 89% 29.34 in 2.5 mi West 9.2 mph - 0.00 in Snow Light Snow
12:38 PM 28.9 °F 19.8 °F 26.1 °F 89% 29.34 in 4.0 mi West 10.4 mph - 0.00 in Snow Light Snow
12:54 PM 30.0 °F 20.0 °F 26.1 °F 85% 29.40 in 6.0 mi WNW 12.7 mph - 0.00 in   Overcast
1:24 PM 25.0 °F 11.7 °F 19.0 °F 78% 29.36 in 2.0 mi WNW 17.3 mph 25.3 mph 0.00 in Snow Light Snow
1:27 PM 25.0 °F 9.9 °F 19.0 °F 78% 29.36 in 1.0 mi WNW 23.0 mph 29.9 mph 0.00 in Snow Light Snow
1:41 PM 24.1 °F 9.8 °F 18.0 °F 77% 29.37 in 2.0 mi WNW 19.6 mph - 0.00 in Snow Light Snow
1:54 PM 24.1 °F 9.8 °F 17.1 °F 75% 29.44 in 4.0 mi NW 19.6 mph - 0.00 in   Overcast
2:13 PM 24.1 °F 10.1 °F 17.1 °F 75% 29.39 in 1.8 mi WNW 18.4 mph 27.6 mph 0.00 in Snow Light Snow
2:18 PM 23.0 °F 8.3 °F 17.1 °F 78% 29.39 in 1.0 mi NW 19.6 mph 25.3 mph 0.00 in Snow Light Snow
2:31 PM 24.1 °F 10.6 °F 17.1 °F 75% 29.39 in 2.0 mi NW 17.3 mph - 0.00 in Snow Light Snow
2:39 PM 24.1 °F 9.4 °F 16.0 °F 71% 29.40 in 3.0 mi WNW 20.7 mph 29.9 mph 0.00 in Snow Light Snow
2:54 PM 24.1 °F 11.0 °F 15.1 °F 69% 29.47 in 5.0 mi WNW 16.1 mph 25.3 mph 0.00 in Snow Light Snow
3:54 PM 21.9 °F 7.8 °F 14.0 °F 72% 29.51 in 10.0 mi WNW 17.3 mph - 0.00 in   Overcast
4:11 PM 21.9 °F 7.8 °F 15.1 °F 75% 29.47 in 4.0 mi NW 17.3 mph - 0.00 in Snow Light Snow
4:21 PM 19.9 °F 2.8 °F 14.0 °F 78% 29.48 in 1.8 mi NW 24.2 mph 29.9 mph 0.00 in Snow Light Snow
4:42 PM 17.1 °F 0.1 °F 10.9 °F 77% 29.51 in 2.5 mi NW 20.7 mph 32.2 mph 0.00 in Snow Light Snow
4:49 PM 17.6 °F 2.2 °F 10.4 °F 73% 29.51 in 5.0 mi NW 17.3 mph - 0.00 in Snow Light Snow
4:54 PM 17.1 °F -0.6 °F 10.0 °F 74% 29.58 in 6.0 mi NW 23.0 mph - 0.00 in Snow Light Snow
5:21 PM 16.0 °F -1.3 °F 9.0 °F 74% 29.53 in 4.0 mi NW 20.7 mph - 0.00 in Snow Light Snow
5:52 PM 15.8 °F -2.3 °F 6.8 °F 68% 29.56 in 2.5 mi NW 23.0 mph 31.1 mph 0.00 in Snow Light Snow
5:54 PM 14.0 °F -3.9 °F 7.0 °F 74% 29.62 in 3.0 mi NW 20.7 mph 28.8 mph 0.00 in Snow Light Snow
6:39 PM 12.0 °F -7.3 °F 6.1 °F 77% 29.58 in 2.0 mi NW 23.0 mph 32.2 mph 0.00 in Snow Light Snow
6:46 PM 10.9 °F -8.3 °F 6.1 °F 81% 29.59 in 1.2 mi NW 21.9 mph 32.2 mph 0.00 in Snow Light Snow
6:54 PM 10.9 °F -9.2 °F 6.1 °F 81% 29.66 in 1.0 mi NW 24.2 mph - 0.00 in Snow Light Snow
7:04 PM 10.9 °F -6.5 °F 6.1 °F 81% 29.59 in 1.5 mi NW 17.3 mph - 0.00 in Snow Light Snow
7:34 PM 10.0 °F -8.1 °F 3.9 °F 76% 29.60 in 2.0 mi NW 18.4 mph - 0.00 in Snow Light Snow
7:42 PM 10.0 °F -8.1 °F 3.0 °F 73% 29.61 in 3.0 mi NW 18.4 mph - 0.00 in Snow Light Snow
7:54 PM 10.0 °F -9.1 °F 3.0 °F 73% 29.68 in 5.0 mi NW 20.7 mph - 0.00 in Snow Light Snow
8:54 PM 9.0 °F -9.5 °F 1.0 °F 70% 29.70 in 10.0 mi NW 18.4 mph - 0.00 in   Overcast
9:54 PM 9.0 °F -8.5 °F 1.0 °F 70% 29.72 in 6.0 mi NW 16.1 mph 25.3 mph 0.00 in Snow Light Snow
10:33 PM 8.1 °F -9.0 °F 1.0 °F 73% 29.65 in 4.0 mi WNW 15.0 mph 24.2 mph 0.00 in Snow Light Snow
10:54 PM 8.1 °F -7.7 °F 1.0 °F 73% 29.72 in 2.0 mi WNW 12.7 mph - 0.00 in Snow Light Snow
11:07 PM 8.1 °F -9.0 °F 1.0 °F 73% 29.65 in 4.0 mi WNW 15.0 mph - 0.00 in Snow Light Snow
11:54 PM 8.1 °F -8.4 °F 1.9 °F 76% 29.72 in 4.0 mi WNW 13.8 mph - 0.00 in Snow Light Snow